sensor_id;sensor_type;location;lat;lon;timestamp;temperature;humidity
22430;DHT22;11382;48.086;11.632;2023-08-30T00:00:05;12.70;99.90
22430;DHT22;11382;48.086;11.632;2023-08-30T00:02:34;12.70;99.90
22430;DHT22;11382;48.086;11.632;2023-08-30T00:05:04;12.80;99.90
22430;DHT22;11382;48.086;11.632;2023-08-30T00:07:32;12.80;99.90
22430;DHT22;11382;48.086;11.632;2023-08-30T00:10:01;12.80;99.90
22430;DHT22;11382;48.086;11.632;2023-08-30T00:12:30;12.80;99.90
22430;DHT22;11382;48.086;11.632;2023-08-30T00:14:58;12.80;99.90
22430;DHT22;11382;48.086;11.632;2023-08-30T00:17:26;12.80;99.90
22430;DHT22;11382;48.086;11.632;2023-08-30T00:19:54;12.80;99.90
22430;DHT22;11382;48.086;11.632;2023-08-30T00:22:25;12.80;99.90
22430;DHT22;11382;48.086;11.632;2023-08-30T00:24:54;12.80;99.90
22430;DHT22;11382;48.086;11.632;2023-08-30T00:27:24;12.80;99.90
22430;DHT22;11382;48.086;11.632;2023-08-30T00:29:51;12.80;99.90
22430;DHT22;11382;48.086;11.632;2023-08-30T00:32:19;12.80;99.90
22430;DHT22;11382;48.086;11.632;2023-08-30T00:34:49;12.80;99.90
22430;DHT22;11382;48.086;11.632;2023-08-30T00:37:17;12.80;99.90
22430;DHT22;11382;48.086;11.632;2023-08-30T00:39:45;12.80;99.90
22430;DHT22;11382;48.086;11.632;2023-08-30T00:42:13;12.80;99.90
22430;DHT22;11382;48.086;11.632;2023-08-30T00:44:43;12.80;99.90
22430;DHT22;11382;48.086;11.632;2023-08-30T00:47:13;12.70;99.90
22430;DHT22;11382;48.086;11.632;2023-08-30T00:49:41;12.80;99.90
22430;DHT22;11382;48.086;11.632;2023-08-30T00:52:10;12.80;99.90
22430;DHT22;11382;48.086;11.632;2023-08-30T00:54:39;12.70;99.90
22430;DHT22;11382;48.086;11.632;2023-08-30T00:57:08;12.70;99.90
22430;DHT22;11382;48.086;11.632;2023-08-30T00:59:37;12.80;99.90
22430;DHT22;11382;48.086;11.632;2023-08-30T01:02:06;12.80;99.90
22430;DHT22;11382;48.086;11.632;2023-08-30T01:04:34;12.80;99.90
22430;DHT22;11382;48.086;11.632;2023-08-30T01:07:03;12.70;99.90
22430;DHT22;11382;48.086;11.632;2023-08-30T01:09:33;12.80;99.90
22430;DHT22;11382;48.086;11.632;2023-08-30T01:12:07;12.70;99.90
22430;DHT22;11382;48.086;11.632;2023-08-30T01:14:40;12.80;99.90
22430;DHT22;11382;48.086;11.632;2023-08-30T01:17:14;12.80;99.90
22430;DHT22;11382;48.086;11.632;2023-08-30T01:19:48;12.80;99.90
22430;DHT22;11382;48.086;11.632;2023-08-30T01:22:25;12.70;99.90
22430;DHT22;11382;48.086;11.632;2023-08-30T01:25:04;12.70;99.90
22430;DHT22;11382;48.086;11.632;2023-08-30T01:27:38;12.80;99.90
22430;DHT22;11382;48.086;11.632;2023-08-30T01:30:09;12.80;99.90
22430;DHT22;11382;48.086;11.632;2023-08-30T01:32:38;12.80;99.90
22430;DHT22;11382;48.086;11.632;2023-08-30T01:35:08;12.80;99.90
22430;DHT22;11382;48.086;11.632;2023-08-30T01:37:39;12.70;99.90
22430;DHT22;11382;48.086;11.632;2023-08-30T01:40:09;12.80;99.90
22430;DHT22;11382;48.086;11.632;2023-08-30T01:42:39;12.80;99.90
22430;DHT22;11382;48.086;11.632;2023-08-30T01:45:09;12.80;99.90
22430;DHT22;11382;48.086;11.632;2023-08-30T01:47:41;12.70;99.90
22430;DHT22;11382;48.086;11.632;2023-08-30T01:50:11;12.70;99.90
22430;DHT22;11382;48.086;11.632;2023-08-30T01:52:40;12.70;99.90
22430;DHT22;11382;48.086;11.632;2023-08-30T01:55:08;12.80;99.90
22430;DHT22;11382;48.086;11.632;2023-08-30T01:57:39;12.80;99.90
22430;DHT22;11382;48.086;11.632;2023-08-30T02:00:08;12.80;99.90
22430;DHT22;11382;48.086;11.632;2023-08-30T02:02:42;12.80;99.90
22430;DHT22;11382;48.086;11.632;2023-08-30T02:05:10;12.80;99.90
22430;DHT22;11382;48.086;11.632;2023-08-30T02:07:46;12.80;99.90
22430;DHT22;11382;48.086;11.632;2023-08-30T02:10:23;12.90;99.90
22430;DHT22;11382;48.086;11.632;2023-08-30T02:12:54;12.90;99.90
22430;DHT22;11382;48.086;11.632;2023-08-30T02:15:25;12.90;99.90
22430;DHT22;11382;48.086;11.632;2023-08-30T02:17:55;12.80;99.90
22430;DHT22;11382;48.086;11.632;2023-08-30T02:20:23;12.90;99.90
22430;DHT22;11382;48.086;11.632;2023-08-30T02:22:57;12.90;99.90
22430;DHT22;11382;48.086;11.632;2023-08-30T02:25:32;12.90;99.90
22430;DHT22;11382;48.086;11.632;2023-08-30T02:28:03;12.90;99.90
22430;DHT22;11382;48.086;11.632;2023-08-30T02:30:32;12.80;99.90
22430;DHT22;11382;48.086;11.632;2023-08-30T02:33:00;12.80;99.90
22430;DHT22;11382;48.086;11.632;2023-08-30T02:35:30;12.80;99.90
22430;DHT22;11382;48.086;11.632;2023-08-30T02:37:58;12.90;99.90
22430;DHT22;11382;48.086;11.632;2023-08-30T02:40:26;12.90;99.90
22430;DHT22;11382;48.086;11.632;2023-08-30T02:42:54;12.90;99.90
22430;DHT22;11382;48.086;11.632;2023-08-30T02:45:23;12.90;99.90
22430;DHT22;11382;48.086;11.632;2023-08-30T02:47:55;12.90;99.90
22430;DHT22;11382;48.086;11.632;2023-08-30T02:50:25;13.00;99.90
22430;DHT22;11382;48.086;11.632;2023-08-30T02:52:53;13.00;99.90
22430;DHT22;11382;48.086;11.632;2023-08-30T02:55:21;13.00;99.90
22430;DHT22;11382;48.086;11.632;2023-08-30T02:57:49;13.00;99.90
22430;DHT22;11382;48.086;11.632;2023-08-30T03:00:17;13.00;99.90
22430;DHT22;11382;48.086;11.632;2023-08-30T03:02:50;13.00;99.90
22430;DHT22;11382;48.086;11.632;2023-08-30T03:05:18;13.00;99.90
22430;DHT22;11382;48.086;11.632;2023-08-30T03:07:46;13.00;99.90
22430;DHT22;11382;48.086;11.632;2023-08-30T03:10:16;12.90;99.90
22430;DHT22;11382;48.086;11.632;2023-08-30T03:12:44;12.80;99.90
22430;DHT22;11382;48.086;11.632;2023-08-30T03:15:12;12.90;99.90
22430;DHT22;11382;48.086;11.632;2023-08-30T03:17:40;12.90;99.90
22430;DHT22;11382;48.086;11.632;2023-08-30T03:20:10;12.90;99.90
22430;DHT22;11382;48.086;11.632;2023-08-30T03:22:39;12.90;99.90
22430;DHT22;11382;48.086;11.632;2023-08-30T03:25:10;12.90;99.90
22430;DHT22;11382;48.086;11.632;2023-08-30T03:27:38;12.90;99.90
22430;DHT22;11382;48.086;11.632;2023-08-30T03:30:07;12.90;99.90
22430;DHT22;11382;48.086;11.632;2023-08-30T03:32:36;12.90;99.90
22430;DHT22;11382;48.086;11.632;2023-08-30T03:35:05;12.90;99.90
22430;DHT22;11382;48.086;11.632;2023-08-30T03:37:36;12.90;99.90
22430;DHT22;11382;48.086;11.632;2023-08-30T03:40:05;12.90;99.90
22430;DHT22;11382;48.086;11.632;2023-08-30T03:42:33;12.90;99.90
22430;DHT22;11382;48.086;11.632;2023-08-30T03:45:03;12.90;99.90
22430;DHT22;11382;48.086;11.632;2023-08-30T03:47:32;12.90;99.90
22430;DHT22;11382;48.086;11.632;2023-08-30T03:50:00;12.90;99.90
22430;DHT22;11382;48.086;11.632;2023-08-30T03:52:28;12.90;99.90
22430;DHT22;11382;48.086;11.632;2023-08-30T03:54:58;12.90;99.90
22430;DHT22;11382;48.086;11.632;2023-08-30T03:57:26;12.90;99.90
22430;DHT22;11382;48.086;11.632;2023-08-30T03:59:55;12.80;99.90
22430;DHT22;11382;48.086;11.632;2023-08-30T04:02:22;12.90;99.90
22430;DHT22;11382;48.086;11.632;2023-08-30T04:04:50;12.80;99.90
22430;DHT22;11382;48.086;11.632;2023-08-30T04:07:18;12.90;99.90
22430;DHT22;11382;48.086;11.632;2023-08-30T04:09:48;12.90;99.90
22430;DHT22;11382;48.086;11.632;2023-08-30T04:12:17;12.80;99.90
22430;DHT22;11382;48.086;11.632;2023-08-30T04:14:47;12.90;99.90
22430;DHT22;11382;48.086;11.632;2023-08-30T04:17:15;12.90;99.90
22430;DHT22;11382;48.086;11.632;2023-08-30T04:19:43;12.90;99.90
22430;DHT22;11382;48.086;11.632;2023-08-30T04:22:11;12.80;99.90
22430;DHT22;11382;48.086;11.632;2023-08-30T04:24:39;12.90;99.90
22430;DHT22;11382;48.086;11.632;2023-08-30T04:27:07;12.80;99.90
22430;DHT22;11382;48.086;11.632;2023-08-30T04:29:36;12.90;99.90
22430;DHT22;11382;48.086;11.632;2023-08-30T04:32:07;12.90;99.90
22430;DHT22;11382;48.086;11.632;2023-08-30T04:34:35;13.10;99.90
22430;DHT22;11382;48.086;11.632;2023-08-30T04:37:04;13.00;99.90
22430;DHT22;11382;48.086;11.632;2023-08-30T04:39:32;13.00;99.90
22430;DHT22;11382;48.086;11.632;2023-08-30T04:42:02;13.00;99.90
22430;DHT22;11382;48.086;11.632;2023-08-30T04:44:30;13.00;99.90
22430;DHT22;11382;48.086;11.632;2023-08-30T04:47:00;13.10;99.90
22430;DHT22;11382;48.086;11.632;2023-08-30T04:49:28;13.10;99.90
22430;DHT22;11382;48.086;11.632;2023-08-30T04:51:56;13.10;99.90
22430;DHT22;11382;48.086;11.632;2023-08-30T04:54:24;13.00;99.90
22430;DHT22;11382;48.086;11.632;2023-08-30T04:56:52;13.00;99.90
22430;DHT22;11382;48.086;11.632;2023-08-30T04:59:24;13.00;99.90
22430;DHT22;11382;48.086;11.632;2023-08-30T05:01:52;13.00;99.90
22430;DHT22;11382;48.086;11.632;2023-08-30T05:04:25;12.90;99.90
22430;DHT22;11382;48.086;11.632;2023-08-30T05:06:54;12.90;99.90
22430;DHT22;11382;48.086;11.632;2023-08-30T05:09:23;13.00;99.90
22430;DHT22;11382;48.086;11.632;2023-08-30T05:11:52;13.10;99.90
22430;DHT22;11382;48.086;11.632;2023-08-30T05:14:21;13.20;99.90
22430;DHT22;11382;48.086;11.632;2023-08-30T05:16:49;13.20;99.90
22430;DHT22;11382;48.086;11.632;2023-08-30T05:19:19;13.30;99.90
22430;DHT22;11382;48.086;11.632;2023-08-30T05:21:49;13.30;99.90
22430;DHT22;11382;48.086;11.632;2023-08-30T05:24:21;13.40;99.90
22430;DHT22;11382;48.086;11.632;2023-08-30T05:26:49;13.30;99.90
22430;DHT22;11382;48.086;11.632;2023-08-30T05:29:19;13.30;99.90
22430;DHT22;11382;48.086;11.632;2023-08-30T05:31:47;13.20;99.90
22430;DHT22;11382;48.086;11.632;2023-08-30T05:34:34;13.20;99.90
22430;DHT22;11382;48.086;11.632;2023-08-30T05:37:18;13.20;99.90
22430;DHT22;11382;48.086;11.632;2023-08-30T05:40:17;13.30;99.90
22430;DHT22;11382;48.086;11.632;2023-08-30T05:42:46;13.30;99.90
22430;DHT22;11382;48.086;11.632;2023-08-30T05:45:14;13.40;99.90
22430;DHT22;11382;48.086;11.632;2023-08-30T05:47:42;13.40;99.90
22430;DHT22;11382;48.086;11.632;2023-08-30T05:50:10;13.50;99.90
22430;DHT22;11382;48.086;11.632;2023-08-30T05:52:40;13.60;99.90
22430;DHT22;11382;48.086;11.632;2023-08-30T05:55:08;13.60;99.90
22430;DHT22;11382;48.086;11.632;2023-08-30T05:57:38;13.60;99.90
22430;DHT22;11382;48.086;11.632;2023-08-30T06:00:07;13.50;99.90
22430;DHT22;11382;48.086;11.632;2023-08-30T06:02:41;13.50;99.90
22430;DHT22;11382;48.086;11.632;2023-08-30T06:05:10;13.60;99.90
22430;DHT22;11382;48.086;11.632;2023-08-30T06:07:39;13.50;99.90
22430;DHT22;11382;48.086;11.632;2023-08-30T06:10:09;13.60;99.90
22430;DHT22;11382;48.086;11.632;2023-08-30T06:12:38;13.60;99.90
22430;DHT22;11382;48.086;11.632;2023-08-30T06:15:06;13.60;99.90
22430;DHT22;11382;48.086;11.632;2023-08-30T06:17:35;13.60;99.90
22430;DHT22;11382;48.086;11.632;2023-08-30T06:20:03;13.60;99.90
22430;DHT22;11382;48.086;11.632;2023-08-30T06:22:31;13.60;99.90
22430;DHT22;11382;48.086;11.632;2023-08-30T06:25:01;13.70;99.90
22430;DHT22;11382;48.086;11.632;2023-08-30T06:27:33;13.70;99.90
22430;DHT22;11382;48.086;11.632;2023-08-30T06:30:02;13.70;99.90
22430;DHT22;11382;48.086;11.632;2023-08-30T06:32:30;13.80;99.90
22430;DHT22;11382;48.086;11.632;2023-08-30T06:34:58;14.00;99.90
22430;DHT22;11382;48.086;11.632;2023-08-30T06:37:27;14.00;99.90
22430;DHT22;11382;48.086;11.632;2023-08-30T06:39:55;14.10;99.90
22430;DHT22;11382;48.086;11.632;2023-08-30T06:42:25;14.20;99.90
22430;DHT22;11382;48.086;11.632;2023-08-30T06:44:53;14.40;99.90
22430;DHT22;11382;48.086;11.632;2023-08-30T06:47:21;14.50;99.90
22430;DHT22;11382;48.086;11.632;2023-08-30T06:49:49;14.70;99.90
22430;DHT22;11382;48.086;11.632;2023-08-30T06:52:17;14.90;99.90
22430;DHT22;11382;48.086;11.632;2023-08-30T06:54:45;15.10;99.90
22430;DHT22;11382;48.086;11.632;2023-08-30T06:57:13;15.10;99.90
22430;DHT22;11382;48.086;11.632;2023-08-30T06:59:42;15.30;99.90
22430;DHT22;11382;48.086;11.632;2023-08-30T07:02:11;15.30;99.90
22430;DHT22;11382;48.086;11.632;2023-08-30T07:04:40;15.50;99.90
22430;DHT22;11382;48.086;11.632;2023-08-30T07:07:08;15.60;99.90
22430;DHT22;11382;48.086;11.632;2023-08-30T07:09:37;15.60;99.90
22430;DHT22;11382;48.086;11.632;2023-08-30T07:12:05;15.50;99.90
22430;DHT22;11382;48.086;11.632;2023-08-30T07:14:34;15.40;99.90
22430;DHT22;11382;48.086;11.632;2023-08-30T07:17:04;15.40;99.90
22430;DHT22;11382;48.086;11.632;2023-08-30T07:19:32;15.40;99.90
22430;DHT22;11382;48.086;11.632;2023-08-30T07:22:00;15.50;99.90
22430;DHT22;11382;48.086;11.632;2023-08-30T07:24:28;15.40;99.90
22430;DHT22;11382;48.086;11.632;2023-08-30T07:26:56;15.60;99.90
22430;DHT22;11382;48.086;11.632;2023-08-30T07:29:24;15.70;99.90
22430;DHT22;11382;48.086;11.632;2023-08-30T07:31:53;15.70;99.90
22430;DHT22;11382;48.086;11.632;2023-08-30T07:34:23;15.50;99.90
22430;DHT22;11382;48.086;11.632;2023-08-30T07:36:54;15.50;99.90
22430;DHT22;11382;48.086;11.632;2023-08-30T07:39:22;15.40;99.90
22430;DHT22;11382;48.086;11.632;2023-08-30T07:41:52;15.20;99.90
22430;DHT22;11382;48.086;11.632;2023-08-30T07:44:20;15.20;99.90
22430;DHT22;11382;48.086;11.632;2023-08-30T07:46:48;15.10;99.90
22430;DHT22;11382;48.086;11.632;2023-08-30T07:49:16;15.00;99.90
22430;DHT22;11382;48.086;11.632;2023-08-30T07:51:46;15.00;99.90
22430;DHT22;11382;48.086;11.632;2023-08-30T07:54:14;15.00;99.90
22430;DHT22;11382;48.086;11.632;2023-08-30T07:56:42;15.10;99.90
22430;DHT22;11382;48.086;11.632;2023-08-30T07:59:10;15.40;99.90
22430;DHT22;11382;48.086;11.632;2023-08-30T08:01:38;15.70;99.90
22430;DHT22;11382;48.086;11.632;2023-08-30T08:04:06;15.80;99.90
22430;DHT22;11382;48.086;11.632;2023-08-30T08:06:34;16.00;99.90
22430;DHT22;11382;48.086;11.632;2023-08-30T08:09:05;16.40;99.90
22430;DHT22;11382;48.086;11.632;2023-08-30T08:11:35;16.60;99.90
22430;DHT22;11382;48.086;11.632;2023-08-30T08:14:03;16.70;99.90
22430;DHT22;11382;48.086;11.632;2023-08-30T08:16:31;16.50;99.90
22430;DHT22;11382;48.086;11.632;2023-08-30T08:18:59;16.20;99.90
22430;DHT22;11382;48.086;11.632;2023-08-30T08:21:28;15.90;99.90
22430;DHT22;11382;48.086;11.632;2023-08-30T08:23:56;16.00;99.90
22430;DHT22;11382;48.086;11.632;2023-08-30T08:26:26;15.90;99.90
22430;DHT22;11382;48.086;11.632;2023-08-30T08:28:54;16.00;99.90
22430;DHT22;11382;48.086;11.632;2023-08-30T08:31:23;16.10;99.90
22430;DHT22;11382;48.086;11.632;2023-08-30T08:34:06;16.00;99.90
22430;DHT22;11382;48.086;11.632;2023-08-30T08:36:35;16.10;99.90
22430;DHT22;11382;48.086;11.632;2023-08-30T08:39:03;16.30;99.90
22430;DHT22;11382;48.086;11.632;2023-08-30T08:41:37;16.60;99.90
22430;DHT22;11382;48.086;11.632;2023-08-30T08:44:06;16.60;99.90
22430;DHT22;11382;48.086;11.632;2023-08-30T08:46:36;17.10;99.90
22430;DHT22;11382;48.086;11.632;2023-08-30T08:49:08;17.50;99.90
22430;DHT22;11382;48.086;11.632;2023-08-30T08:51:38;17.70;99.90
22430;DHT22;11382;48.086;11.632;2023-08-30T08:54:07;17.80;99.90
22430;DHT22;11382;48.086;11.632;2023-08-30T08:56:38;17.70;99.90
22430;DHT22;11382;48.086;11.632;2023-08-30T08:59:06;18.00;99.90
22430;DHT22;11382;48.086;11.632;2023-08-30T09:01:36;18.00;99.90
22430;DHT22;11382;48.086;11.632;2023-08-30T09:04:09;18.10;99.90
22430;DHT22;11382;48.086;11.632;2023-08-30T09:06:38;18.40;99.90
22430;DHT22;11382;48.086;11.632;2023-08-30T09:09:08;18.60;99.90
22430;DHT22;11382;48.086;11.632;2023-08-30T09:11:38;18.90;99.90
22430;DHT22;11382;48.086;11.632;2023-08-30T09:14:17;18.70;99.90
22430;DHT22;11382;48.086;11.632;2023-08-30T09:16:55;18.40;99.90
22430;DHT22;11382;48.086;11.632;2023-08-30T09:19:24;18.30;99.90
22430;DHT22;11382;48.086;11.632;2023-08-30T09:21:52;18.30;99.90
22430;DHT22;11382;48.086;11.632;2023-08-30T09:24:21;18.60;99.90
22430;DHT22;11382;48.086;11.632;2023-08-30T09:26:53;19.00;99.90
22430;DHT22;11382;48.086;11.632;2023-08-30T09:29:22;19.40;99.90
22430;DHT22;11382;48.086;11.632;2023-08-30T09:31:51;19.00;99.90
22430;DHT22;11382;48.086;11.632;2023-08-30T09:34:22;18.90;99.90
22430;DHT22;11382;48.086;11.632;2023-08-30T09:36:52;19.00;99.90
22430;DHT22;11382;48.086;11.632;2023-08-30T09:39:21;19.20;99.90
22430;DHT22;11382;48.086;11.632;2023-08-30T09:41:50;19.70;99.90
22430;DHT22;11382;48.086;11.632;2023-08-30T09:44:20;23.30;99.90
22430;DHT22;11382;48.086;11.632;2023-08-30T09:46:50;24.60;99.90
22430;DHT22;11382;48.086;11.632;2023-08-30T09:49:21;25.30;99.90
22430;DHT22;11382;48.086;11.632;2023-08-30T09:51:50;25.50;99.90
22430;DHT22;11382;48.086;11.632;2023-08-30T09:54:23;26.80;99.90
22430;DHT22;11382;48.086;11.632;2023-08-30T09:56:57;27.70;99.90
22430;DHT22;11382;48.086;11.632;2023-08-30T09:59:27;26.20;99.90
22430;DHT22;11382;48.086;11.632;2023-08-30T10:01:57;25.00;99.90
22430;DHT22;11382;48.086;11.632;2023-08-30T10:04:28;24.00;99.90
22430;DHT22;11382;48.086;11.632;2023-08-30T10:06:58;23.60;99.90
22430;DHT22;11382;48.086;11.632;2023-08-30T10:09:26;24.40;99.90
22430;DHT22;11382;48.086;11.632;2023-08-30T10:11:59;25.20;99.90
22430;DHT22;11382;48.086;11.632;2023-08-30T10:14:28;25.40;99.90
22430;DHT22;11382;48.086;11.632;2023-08-30T10:17:02;25.30;99.90
22430;DHT22;11382;48.086;11.632;2023-08-30T10:20:11;24.40;99.90
22430;DHT22;11382;48.086;11.632;2023-08-30T10:22:40;23.70;99.90
22430;DHT22;11382;48.086;11.632;2023-08-30T10:25:11;23.20;99.90
22430;DHT22;11382;48.086;11.632;2023-08-30T10:27:46;23.50;99.90
22430;DHT22;11382;48.086;11.632;2023-08-30T10:30:16;24.10;99.90
22430;DHT22;11382;48.086;11.632;2023-08-30T10:32:45;24.50;99.90
22430;DHT22;11382;48.086;11.632;2023-08-30T10:35:14;24.20;99.90
22430;DHT22;11382;48.086;11.632;2023-08-30T10:37:53;23.90;99.90
22430;DHT22;11382;48.086;11.632;2023-08-30T10:40:21;23.10;99.90
22430;DHT22;11382;48.086;11.632;2023-08-30T10:43:00;22.30;99.90
22430;DHT22;11382;48.086;11.632;2023-08-30T10:45:29;21.50;99.90
22430;DHT22;11382;48.086;11.632;2023-08-30T10:47:58;21.00;99.90
22430;DHT22;11382;48.086;11.632;2023-08-30T10:50:31;20.80;99.90
22430;DHT22;11382;48.086;11.632;2023-08-30T10:52:59;20.60;99.90
22430;DHT22;11382;48.086;11.632;2023-08-30T10:55:27;20.80;99.90
22430;DHT22;11382;48.086;11.632;2023-08-30T10:58:01;21.30;99.90
22430;DHT22;11382;48.086;11.632;2023-08-30T11:00:30;21.90;99.90
22430;DHT22;11382;48.086;11.632;2023-08-30T11:02:59;23.10;99.90
22430;DHT22;11382;48.086;11.632;2023-08-30T11:05:29;24.20;99.90
22430;DHT22;11382;48.086;11.632;2023-08-30T11:07:58;25.50;99.90
22430;DHT22;11382;48.086;11.632;2023-08-30T11:10:26;25.30;99.50
22430;DHT22;11382;48.086;11.632;2023-08-30T11:12:56;24.90;99.90
22430;DHT22;11382;48.086;11.632;2023-08-30T11:15:26;24.50;99.90
22430;DHT22;11382;48.086;11.632;2023-08-30T11:18:02;24.50;99.90
22430;DHT22;11382;48.086;11.632;2023-08-30T11:20:30;23.90;99.90
22430;DHT22;11382;48.086;11.632;2023-08-30T11:22:58;23.10;99.90
22430;DHT22;11382;48.086;11.632;2023-08-30T11:25:26;22.80;99.90
22430;DHT22;11382;48.086;11.632;2023-08-30T11:28:02;22.70;99.90
22430;DHT22;11382;48.086;11.632;2023-08-30T11:30:31;22.70;99.90
22430;DHT22;11382;48.086;11.632;2023-08-30T11:32:59;22.70;99.90
22430;DHT22;11382;48.086;11.632;2023-08-30T11:35:27;23.30;99.90
22430;DHT22;11382;48.086;11.632;2023-08-30T11:37:56;23.30;99.90
22430;DHT22;11382;48.086;11.632;2023-08-30T11:40:24;24.90;99.00
22430;DHT22;11382;48.086;11.632;2023-08-30T11:42:52;25.80;97.60
22430;DHT22;11382;48.086;11.632;2023-08-30T11:45:20;26.30;95.30
22430;DHT22;11382;48.086;11.632;2023-08-30T11:47:49;26.30;94.70
22430;DHT22;11382;48.086;11.632;2023-08-30T11:50:19;25.80;95.20
22430;DHT22;11382;48.086;11.632;2023-08-30T11:52:52;25.40;96.50
22430;DHT22;11382;48.086;11.632;2023-08-30T11:55:20;26.00;94.30
22430;DHT22;11382;48.086;11.632;2023-08-30T11:57:49;25.90;94.80
22430;DHT22;11382;48.086;11.632;2023-08-30T12:00:19;25.00;94.20
22430;DHT22;11382;48.086;11.632;2023-08-30T12:02:47;24.10;96.30
22430;DHT22;11382;48.086;11.632;2023-08-30T12:05:17;23.20;97.30
22430;DHT22;11382;48.086;11.632;2023-08-30T12:07:46;22.60;99.90
22430;DHT22;11382;48.086;11.632;2023-08-30T12:10:18;22.60;99.90
22430;DHT22;11382;48.086;11.632;2023-08-30T12:12:47;22.50;99.90
22430;DHT22;11382;48.086;11.632;2023-08-30T12:15:15;22.30;99.90
22430;DHT22;11382;48.086;11.632;2023-08-30T12:17:43;22.00;99.90
22430;DHT22;11382;48.086;11.632;2023-08-30T12:20:16;21.90;99.90
22430;DHT22;11382;48.086;11.632;2023-08-30T12:22:47;22.10;99.90
22430;DHT22;11382;48.086;11.632;2023-08-30T12:25:19;21.60;99.90
22430;DHT22;11382;48.086;11.632;2023-08-30T12:27:47;21.80;99.90
22430;DHT22;11382;48.086;11.632;2023-08-30T12:30:16;21.70;99.90
22430;DHT22;11382;48.086;11.632;2023-08-30T12:32:44;21.50;99.90
22430;DHT22;11382;48.086;11.632;2023-08-30T12:35:13;21.30;99.90
22430;DHT22;11382;48.086;11.632;2023-08-30T12:37:43;21.30;99.90
22430;DHT22;11382;48.086;11.632;2023-08-30T12:40:14;21.30;99.90
22430;DHT22;11382;48.086;11.632;2023-08-30T12:42:42;21.10;99.90
22430;DHT22;11382;48.086;11.632;2023-08-30T12:45:10;20.60;99.90
22430;DHT22;11382;48.086;11.632;2023-08-30T12:47:38;20.90;99.90
22430;DHT22;11382;48.086;11.632;2023-08-30T12:50:07;21.00;99.90
22430;DHT22;11382;48.086;11.632;2023-08-30T12:52:36;20.90;99.90
22430;DHT22;11382;48.086;11.632;2023-08-30T12:55:07;20.50;99.90
22430;DHT22;11382;48.086;11.632;2023-08-30T12:57:38;20.60;99.90
22430;DHT22;11382;48.086;11.632;2023-08-30T13:00:07;20.30;99.90
22430;DHT22;11382;48.086;11.632;2023-08-30T13:02:35;20.30;99.90
22430;DHT22;11382;48.086;11.632;2023-08-30T13:05:05;20.10;99.90
22430;DHT22;11382;48.086;11.632;2023-08-30T13:07:33;20.10;99.90
22430;DHT22;11382;48.086;11.632;2023-08-30T13:10:04;20.00;99.90
22430;DHT22;11382;48.086;11.632;2023-08-30T13:12:34;20.20;99.90
22430;DHT22;11382;48.086;11.632;2023-08-30T13:15:03;20.30;99.90
22430;DHT22;11382;48.086;11.632;2023-08-30T13:17:31;20.70;99.90
22430;DHT22;11382;48.086;11.632;2023-08-30T13:19:59;21.10;99.90
22430;DHT22;11382;48.086;11.632;2023-08-30T13:22:31;21.60;99.90
22430;DHT22;11382;48.086;11.632;2023-08-30T13:24:59;22.00;99.90
22430;DHT22;11382;48.086;11.632;2023-08-30T13:27:29;22.20;99.90
22430;DHT22;11382;48.086;11.632;2023-08-30T13:29:58;21.90;99.90
22430;DHT22;11382;48.086;11.632;2023-08-30T13:32:27;21.70;99.90
22430;DHT22;11382;48.086;11.632;2023-08-30T13:34:55;21.90;99.90
22430;DHT22;11382;48.086;11.632;2023-08-30T13:37:23;22.00;99.90
22430;DHT22;11382;48.086;11.632;2023-08-30T13:39:52;22.10;99.90
22430;DHT22;11382;48.086;11.632;2023-08-30T13:42:20;22.00;99.90
22430;DHT22;11382;48.086;11.632;2023-08-30T13:44:50;21.90;99.90
22430;DHT22;11382;48.086;11.632;2023-08-30T13:47:22;21.60;99.90
22430;DHT22;11382;48.086;11.632;2023-08-30T13:49:50;21.30;99.90
22430;DHT22;11382;48.086;11.632;2023-08-30T13:52:18;21.30;99.90
22430;DHT22;11382;48.086;11.632;2023-08-30T13:54:46;21.00;99.90
22430;DHT22;11382;48.086;11.632;2023-08-30T13:57:16;20.70;99.90
22430;DHT22;11382;48.086;11.632;2023-08-30T13:59:44;20.50;99.90
22430;DHT22;11382;48.086;11.632;2023-08-30T14:02:13;20.20;99.90
22430;DHT22;11382;48.086;11.632;2023-08-30T14:04:42;20.00;99.90
22430;DHT22;11382;48.086;11.632;2023-08-30T14:07:12;19.70;99.90
22430;DHT22;11382;48.086;11.632;2023-08-30T14:09:40;19.40;99.90
22430;DHT22;11382;48.086;11.632;2023-08-30T14:12:08;19.20;99.90
22430;DHT22;11382;48.086;11.632;2023-08-30T14:14:36;18.90;99.90
22430;DHT22;11382;48.086;11.632;2023-08-30T14:17:05;18.60;99.90
22430;DHT22;11382;48.086;11.632;2023-08-30T14:19:34;18.20;99.90
22430;DHT22;11382;48.086;11.632;2023-08-30T14:22:03;18.00;99.90
22430;DHT22;11382;48.086;11.632;2023-08-30T14:24:33;17.70;99.90
22430;DHT22;11382;48.086;11.632;2023-08-30T14:27:13;17.60;99.90
22430;DHT22;11382;48.086;11.632;2023-08-30T14:29:41;17.60;99.90
22430;DHT22;11382;48.086;11.632;2023-08-30T14:32:09;17.40;99.90
22430;DHT22;11382;48.086;11.632;2023-08-30T14:34:37;17.50;99.90
22430;DHT22;11382;48.086;11.632;2023-08-30T14:37:06;17.70;99.90
22430;DHT22;11382;48.086;11.632;2023-08-30T14:39:34;17.80;99.90
22430;DHT22;11382;48.086;11.632;2023-08-30T14:42:02;17.70;99.90
22430;DHT22;11382;48.086;11.632;2023-08-30T14:44:31;17.80;99.90
22430;DHT22;11382;48.086;11.632;2023-08-30T14:46:58;17.90;99.90
22430;DHT22;11382;48.086;11.632;2023-08-30T14:49:27;18.00;99.90
22430;DHT22;11382;48.086;11.632;2023-08-30T14:51:55;18.00;99.90
22430;DHT22;11382;48.086;11.632;2023-08-30T14:54:24;18.20;99.90
22430;DHT22;11382;48.086;11.632;2023-08-30T14:56:52;18.50;99.90
22430;DHT22;11382;48.086;11.632;2023-08-30T14:59:20;18.90;99.90
22430;DHT22;11382;48.086;11.632;2023-08-30T15:01:48;18.80;99.90
22430;DHT22;11382;48.086;11.632;2023-08-30T15:04:16;19.00;99.90
22430;DHT22;11382;48.086;11.632;2023-08-30T15:06:44;19.40;99.90
22430;DHT22;11382;48.086;11.632;2023-08-30T15:09:12;19.70;99.90
22430;DHT22;11382;48.086;11.632;2023-08-30T15:11:44;19.60;99.90
22430;DHT22;11382;48.086;11.632;2023-08-30T15:14:12;19.20;99.90
22430;DHT22;11382;48.086;11.632;2023-08-30T15:16:40;19.50;99.90
22430;DHT22;11382;48.086;11.632;2023-08-30T15:19:08;19.80;99.90
22430;DHT22;11382;48.086;11.632;2023-08-30T15:21:36;19.70;99.90
22430;DHT22;11382;48.086;11.632;2023-08-30T15:24:05;19.80;99.90
22430;DHT22;11382;48.086;11.632;2023-08-30T15:26:33;19.70;99.90
22430;DHT22;11382;48.086;11.632;2023-08-30T15:29:02;19.40;99.90